Aérodrome :
LOGIN :

S'inscrire | Disclaimer

   EN    FR    IT 

 










Légende :    VFR   VFR Marginal   IFR   IFR Intensif   IFR Très Intensif
Visi : 
Plafond : 
>= 8 km
>= 3000ft
5 à 8 km
1000 à 3000 ft
1500m à 5 km
500 à 1000 ft
800 à 1500m
200 à 500 ft
< 800m
< 200 ft
Symboles :   Orages  Brouillard  Fortes neiges  Fortes précipitations  Vent > 20 kt
SIGMETs :   Divers  Orages  Givrage  Turbulence  Onde Orograph.  Cendres Volcan.






- Altitude de l'aérodrome : 686 ft


LYKV - Ladevci

DERNIER METAR :
  • 280000Z 00000KT CAVOK 01/M00 Q1008 NOSIG

METARs EXPIRÉS :
  • 272330Z 13006KT CAVOK 02/M02 Q1008 NOSIG
  • 272300Z 15003KT 110V200 CAVOK M01/M01 Q1008 NOSIG
  • 272230Z VRB02KT CAVOK M01/M01 Q1009 NOSIG
  • 272200Z VRB02KT CAVOK M01/M01 Q1009 NOSIG
  • 272130Z 12003KT CAVOK M01/M01 Q1010 NOSIG

TAF TAF LYKV
Valide du 28 à 00h jusqu'au 29 à 00h UTC


272300Z 2800/2824 14006KT 9999 SCT040 TX06/2813Z TNM03/2824Z
TEMPO 2806/2810 4000 RASN BKN015 BKN027
BECMG 2810/2812 32015KT
PROB40
TEMPO 2813/2816 32020G30KT 3000 SHSN SCT010 SCT027TCU BKN033



MET'MAP, la Météo Aéronautique d'un coup d'oeil ! - Copyright ORBIFLY Décembre 2007 - Disclaimer

ORBIFLY MET'MAP TEAM :

Programmation & Développement : Alexandra Zaïnal
Sur une idée originale de : Baudouin d'Aumeries
Assistance à la programmation : Marc-Olivier Méhu
Soutien technique & logistique : Manuel Goepfert

Contact : metmap@orbifly.com




SOURCES & CREDITS :

   NOAA